sensor_id;sensor_type;location;lat;lon;timestamp;P1;durP1;ratioP1;P2;durP2;ratioP2
15693;SDS011;7947;48.834;9.132;2023-08-12T00:01:16;3.40;;;2.90;;
15693;SDS011;7947;48.834;9.132;2023-08-12T00:04:22;3.60;;;3.15;;
15693;SDS011;7947;48.834;9.132;2023-08-12T00:07:27;4.20;;;3.45;;
15693;SDS011;7947;48.834;9.132;2023-08-12T00:10:30;4.75;;;3.25;;
15693;SDS011;7947;48.834;9.132;2023-08-12T00:13:33;5.00;;;3.25;;
15693;SDS011;7947;48.834;9.132;2023-08-12T00:16:35;4.55;;;3.55;;
15693;SDS011;7947;48.834;9.132;2023-08-12T00:19:38;4.15;;;3.40;;
15693;SDS011;7947;48.834;9.132;2023-08-12T00:22:42;3.75;;;3.20;;
15693;SDS011;7947;48.834;9.132;2023-08-12T00:25:45;5.30;;;4.05;;
15693;SDS011;7947;48.834;9.132;2023-08-12T00:28:48;3.70;;;3.30;;
15693;SDS011;7947;48.834;9.132;2023-08-12T00:31:52;3.38;;;2.88;;
15693;SDS011;7947;48.834;9.132;2023-08-12T00:34:55;4.97;;;3.42;;
15693;SDS011;7947;48.834;9.132;2023-08-12T00:38:00;3.40;;;3.10;;
15693;SDS011;7947;48.834;9.132;2023-08-12T00:41:03;4.90;;;3.50;;
15693;SDS011;7947;48.834;9.132;2023-08-12T00:44:06;3.65;;;3.28;;
15693;SDS011;7947;48.834;9.132;2023-08-12T00:47:09;7.40;;;3.65;;
15693;SDS011;7947;48.834;9.132;2023-08-12T00:50:12;4.07;;;3.40;;
15693;SDS011;7947;48.834;9.132;2023-08-12T00:53:18;4.75;;;3.85;;
15693;SDS011;7947;48.834;9.132;2023-08-12T00:56:21;4.18;;;3.60;;
15693;SDS011;7947;48.834;9.132;2023-08-12T00:59:24;4.60;;;3.40;;
15693;SDS011;7947;48.834;9.132;2023-08-12T01:02:28;3.80;;;3.22;;
15693;SDS011;7947;48.834;9.132;2023-08-12T01:05:32;5.40;;;3.30;;
15693;SDS011;7947;48.834;9.132;2023-08-12T01:08:39;4.45;;;3.63;;
15693;SDS011;7947;48.834;9.132;2023-08-12T01:11:42;3.85;;;3.45;;
15693;SDS011;7947;48.834;9.132;2023-08-12T01:14:54;4.88;;;3.85;;
15693;SDS011;7947;48.834;9.132;2023-08-12T01:18:01;7.35;;;3.60;;
15693;SDS011;7947;48.834;9.132;2023-08-12T01:21:07;4.60;;;3.22;;
15693;SDS011;7947;48.834;9.132;2023-08-12T01:24:15;5.55;;;4.00;;
15693;SDS011;7947;48.834;9.132;2023-08-12T01:27:18;5.38;;;3.15;;
15693;SDS011;7947;48.834;9.132;2023-08-12T01:30:21;5.20;;;3.20;;
15693;SDS011;7947;48.834;9.132;2023-08-12T01:33:27;3.50;;;3.20;;
15693;SDS011;7947;48.834;9.132;2023-08-12T01:36:35;4.85;;;3.28;;
15693;SDS011;7947;48.834;9.132;2023-08-12T01:39:41;3.25;;;2.95;;
15693;SDS011;7947;48.834;9.132;2023-08-12T01:42:45;4.85;;;3.63;;
15693;SDS011;7947;48.834;9.132;2023-08-12T01:45:49;3.25;;;2.95;;
15693;SDS011;7947;48.834;9.132;2023-08-12T01:48:52;4.63;;;2.92;;
15693;SDS011;7947;48.834;9.132;2023-08-12T01:51:55;3.30;;;3.00;;
15693;SDS011;7947;48.834;9.132;2023-08-12T01:54:59;4.07;;;3.67;;
15693;SDS011;7947;48.834;9.132;2023-08-12T01:58:02;3.78;;;3.13;;
15693;SDS011;7947;48.834;9.132;2023-08-12T02:01:05;4.75;;;3.35;;
15693;SDS011;7947;48.834;9.132;2023-08-12T02:04:08;6.05;;;3.78;;
15693;SDS011;7947;48.834;9.132;2023-08-12T02:07:11;3.53;;;3.22;;
15693;SDS011;7947;48.834;9.132;2023-08-12T02:10:16;4.28;;;3.20;;
15693;SDS011;7947;48.834;9.132;2023-08-12T02:13:19;4.25;;;2.90;;
15693;SDS011;7947;48.834;9.132;2023-08-12T02:16:22;4.00;;;3.13;;
15693;SDS011;7947;48.834;9.132;2023-08-12T02:19:25;4.38;;;3.47;;
15693;SDS011;7947;48.834;9.132;2023-08-12T02:22:28;3.55;;;2.80;;
15693;SDS011;7947;48.834;9.132;2023-08-12T02:25:32;3.97;;;3.15;;
15693;SDS011;7947;48.834;9.132;2023-08-12T02:28:35;4.40;;;3.53;;
15693;SDS011;7947;48.834;9.132;2023-08-12T02:31:38;3.67;;;3.38;;
15693;SDS011;7947;48.834;9.132;2023-08-12T02:34:41;3.78;;;3.22;;
15693;SDS011;7947;48.834;9.132;2023-08-12T02:37:44;3.72;;;3.33;;
15693;SDS011;7947;48.834;9.132;2023-08-12T02:40:49;4.43;;;3.50;;
15693;SDS011;7947;48.834;9.132;2023-08-12T02:43:52;3.47;;;3.17;;
15693;SDS011;7947;48.834;9.132;2023-08-12T02:46:55;4.05;;;3.25;;
15693;SDS011;7947;48.834;9.132;2023-08-12T02:49:58;5.65;;;3.28;;
15693;SDS011;7947;48.834;9.132;2023-08-12T02:53:01;4.30;;;3.42;;
15693;SDS011;7947;48.834;9.132;2023-08-12T02:56:06;4.15;;;3.40;;
15693;SDS011;7947;48.834;9.132;2023-08-12T02:59:09;3.85;;;3.05;;
15693;SDS011;7947;48.834;9.132;2023-08-12T03:02:12;3.90;;;3.58;;
15693;SDS011;7947;48.834;9.132;2023-08-12T03:05:15;4.00;;;3.60;;
15693;SDS011;7947;48.834;9.132;2023-08-12T03:08:18;4.30;;;3.55;;
15693;SDS011;7947;48.834;9.132;2023-08-12T03:11:22;4.28;;;3.58;;
15693;SDS011;7947;48.834;9.132;2023-08-12T03:14:26;3.70;;;3.20;;
15693;SDS011;7947;48.834;9.132;2023-08-12T03:17:29;4.60;;;3.50;;
15693;SDS011;7947;48.834;9.132;2023-08-12T03:20:32;5.30;;;3.80;;
15693;SDS011;7947;48.834;9.132;2023-08-12T03:23:35;4.05;;;3.65;;
15693;SDS011;7947;48.834;9.132;2023-08-12T03:26:41;4.13;;;3.35;;
15693;SDS011;7947;48.834;9.132;2023-08-12T03:29:44;3.28;;;2.80;;
15693;SDS011;7947;48.834;9.132;2023-08-12T03:32:46;6.63;;;3.40;;
15693;SDS011;7947;48.834;9.132;2023-08-12T03:35:49;3.83;;;3.15;;
15693;SDS011;7947;48.834;9.132;2023-08-12T03:38:52;5.47;;;3.10;;
15693;SDS011;7947;48.834;9.132;2023-08-12T03:41:57;3.67;;;3.38;;
15693;SDS011;7947;48.834;9.132;2023-08-12T03:45:00;3.50;;;3.20;;
15693;SDS011;7947;48.834;9.132;2023-08-12T03:48:03;3.60;;;3.25;;
15693;SDS011;7947;48.834;9.132;2023-08-12T03:51:06;7.15;;;3.92;;
15693;SDS011;7947;48.834;9.132;2023-08-12T03:54:09;5.40;;;3.03;;
15693;SDS011;7947;48.834;9.132;2023-08-12T03:57:13;4.70;;;3.60;;
15693;SDS011;7947;48.834;9.132;2023-08-12T04:00:16;3.97;;;2.95;;
15693;SDS011;7947;48.834;9.132;2023-08-12T04:03:19;3.88;;;3.08;;
15693;SDS011;7947;48.834;9.132;2023-08-12T04:06:22;3.55;;;3.10;;
15693;SDS011;7947;48.834;9.132;2023-08-12T04:09:25;4.07;;;3.10;;
15693;SDS011;7947;48.834;9.132;2023-08-12T04:12:29;3.60;;;3.10;;
15693;SDS011;7947;48.834;9.132;2023-08-12T04:15:32;3.83;;;3.10;;
15693;SDS011;7947;48.834;9.132;2023-08-12T04:18:35;3.58;;;2.90;;
15693;SDS011;7947;48.834;9.132;2023-08-12T04:21:38;4.32;;;3.63;;
15693;SDS011;7947;48.834;9.132;2023-08-12T04:24:41;5.07;;;3.67;;
15693;SDS011;7947;48.834;9.132;2023-08-12T04:27:45;3.92;;;3.00;;
15693;SDS011;7947;48.834;9.132;2023-08-12T04:30:50;4.40;;;3.20;;
15693;SDS011;7947;48.834;9.132;2023-08-12T04:33:54;5.30;;;3.03;;
15693;SDS011;7947;48.834;9.132;2023-08-12T04:36:57;4.57;;;3.72;;
15693;SDS011;7947;48.834;9.132;2023-08-12T04:40:00;3.90;;;3.20;;
15693;SDS011;7947;48.834;9.132;2023-08-12T04:43:05;3.63;;;3.20;;
15693;SDS011;7947;48.834;9.132;2023-08-12T04:46:08;6.13;;;3.83;;
15693;SDS011;7947;48.834;9.132;2023-08-12T04:49:11;4.50;;;3.17;;
15693;SDS011;7947;48.834;9.132;2023-08-12T04:52:14;4.43;;;3.30;;
15693;SDS011;7947;48.834;9.132;2023-08-12T04:55:17;4.20;;;3.20;;
15693;SDS011;7947;48.834;9.132;2023-08-12T04:58:21;4.70;;;3.40;;
15693;SDS011;7947;48.834;9.132;2023-08-12T05:01:24;4.00;;;3.42;;
15693;SDS011;7947;48.834;9.132;2023-08-12T05:04:27;4.32;;;3.22;;
15693;SDS011;7947;48.834;9.132;2023-08-12T05:07:30;4.00;;;3.63;;
15693;SDS011;7947;48.834;9.132;2023-08-12T05:10:35;4.97;;;3.83;;
15693;SDS011;7947;48.834;9.132;2023-08-12T05:13:40;5.15;;;3.70;;
15693;SDS011;7947;48.834;9.132;2023-08-12T05:16:46;3.78;;;3.38;;
15693;SDS011;7947;48.834;9.132;2023-08-12T05:19:49;4.18;;;3.55;;
15693;SDS011;7947;48.834;9.132;2023-08-12T05:22:51;4.93;;;3.78;;
15693;SDS011;7947;48.834;9.132;2023-08-12T05:25:54;4.00;;;3.47;;
15693;SDS011;7947;48.834;9.132;2023-08-12T05:28:58;4.43;;;3.33;;
15693;SDS011;7947;48.834;9.132;2023-08-12T05:32:01;3.67;;;3.28;;
15693;SDS011;7947;48.834;9.132;2023-08-12T05:35:05;4.22;;;3.35;;
15693;SDS011;7947;48.834;9.132;2023-08-12T05:38:08;4.30;;;3.55;;
15693;SDS011;7947;48.834;9.132;2023-08-12T05:41:11;4.03;;;3.40;;
15693;SDS011;7947;48.834;9.132;2023-08-12T05:44:15;3.75;;;3.25;;
15693;SDS011;7947;48.834;9.132;2023-08-12T05:47:18;5.70;;;3.67;;
15693;SDS011;7947;48.834;9.132;2023-08-12T05:50:21;5.30;;;3.75;;
15693;SDS011;7947;48.834;9.132;2023-08-12T05:53:24;5.35;;;3.72;;
15693;SDS011;7947;48.834;9.132;2023-08-12T05:56:26;4.47;;;3.30;;
15693;SDS011;7947;48.834;9.132;2023-08-12T05:59:31;4.60;;;3.70;;
15693;SDS011;7947;48.834;9.132;2023-08-12T06:02:34;3.70;;;3.35;;
15693;SDS011;7947;48.834;9.132;2023-08-12T06:05:37;5.28;;;3.97;;
15693;SDS011;7947;48.834;9.132;2023-08-12T06:08:40;5.43;;;4.10;;
15693;SDS011;7947;48.834;9.132;2023-08-12T06:11:43;6.30;;;4.13;;
15693;SDS011;7947;48.834;9.132;2023-08-12T06:14:47;5.05;;;4.00;;
15693;SDS011;7947;48.834;9.132;2023-08-12T06:17:50;4.40;;;3.58;;
15693;SDS011;7947;48.834;9.132;2023-08-12T06:20:53;4.32;;;3.67;;
15693;SDS011;7947;48.834;9.132;2023-08-12T06:23:55;5.32;;;4.03;;
15693;SDS011;7947;48.834;9.132;2023-08-12T06:26:58;5.65;;;3.95;;
15693;SDS011;7947;48.834;9.132;2023-08-12T06:30:03;5.03;;;3.78;;
15693;SDS011;7947;48.834;9.132;2023-08-12T06:33:07;3.85;;;3.50;;
15693;SDS011;7947;48.834;9.132;2023-08-12T06:36:10;4.00;;;3.53;;
15693;SDS011;7947;48.834;9.132;2023-08-12T06:39:13;4.55;;;3.58;;
15693;SDS011;7947;48.834;9.132;2023-08-12T06:42:16;4.57;;;3.28;;
15693;SDS011;7947;48.834;9.132;2023-08-12T06:45:20;5.38;;;3.70;;
15693;SDS011;7947;48.834;9.132;2023-08-12T06:48:23;3.97;;;3.28;;
15693;SDS011;7947;48.834;9.132;2023-08-12T06:51:33;6.00;;;4.38;;
15693;SDS011;7947;48.834;9.132;2023-08-12T06:54:36;4.60;;;4.00;;
15693;SDS011;7947;48.834;9.132;2023-08-12T06:57:39;4.22;;;3.38;;
15693;SDS011;7947;48.834;9.132;2023-08-12T07:00:43;4.00;;;3.35;;
15693;SDS011;7947;48.834;9.132;2023-08-12T07:03:46;4.05;;;3.60;;
15693;SDS011;7947;48.834;9.132;2023-08-12T07:06:49;4.60;;;3.42;;
15693;SDS011;7947;48.834;9.132;2023-08-12T07:09:52;4.05;;;3.20;;
15693;SDS011;7947;48.834;9.132;2023-08-12T07:12:55;4.25;;;3.53;;
15693;SDS011;7947;48.834;9.132;2023-08-12T07:15:59;3.45;;;3.15;;
15693;SDS011;7947;48.834;9.132;2023-08-12T07:19:02;4.55;;;3.60;;
15693;SDS011;7947;48.834;9.132;2023-08-12T07:22:05;3.63;;;3.20;;
15693;SDS011;7947;48.834;9.132;2023-08-12T07:25:08;4.32;;;3.45;;
15693;SDS011;7947;48.834;9.132;2023-08-12T07:28:12;4.35;;;3.47;;
15693;SDS011;7947;48.834;9.132;2023-08-12T07:31:16;3.70;;;3.40;;
15693;SDS011;7947;48.834;9.132;2023-08-12T07:34:20;4.57;;;2.72;;
15693;SDS011;7947;48.834;9.132;2023-08-12T07:37:23;3.45;;;2.85;;
15693;SDS011;7947;48.834;9.132;2023-08-12T07:40:26;4.70;;;3.08;;
15693;SDS011;7947;48.834;9.132;2023-08-12T07:43:29;3.78;;;3.15;;
15693;SDS011;7947;48.834;9.132;2023-08-12T07:46:33;4.80;;;2.97;;
15693;SDS011;7947;48.834;9.132;2023-08-12T07:49:36;3.65;;;2.78;;
15693;SDS011;7947;48.834;9.132;2023-08-12T07:52:39;4.53;;;3.03;;
15693;SDS011;7947;48.834;9.132;2023-08-12T07:55:42;3.42;;;3.13;;
15693;SDS011;7947;48.834;9.132;2023-08-12T07:58:45;4.35;;;3.42;;
15693;SDS011;7947;48.834;9.132;2023-08-12T08:01:50;4.38;;;3.10;;
15693;SDS011;7947;48.834;9.132;2023-08-12T08:04:53;4.03;;;2.53;;
15693;SDS011;7947;48.834;9.132;2023-08-12T08:07:56;3.55;;;3.13;;
15693;SDS011;7947;48.834;9.132;2023-08-12T08:10:59;4.10;;;2.85;;
15693;SDS011;7947;48.834;9.132;2023-08-12T08:14:02;2.80;;;2.55;;
15693;SDS011;7947;48.834;9.132;2023-08-12T08:17:06;3.17;;;2.75;;
15693;SDS011;7947;48.834;9.132;2023-08-12T08:20:09;3.30;;;2.83;;
15693;SDS011;7947;48.834;9.132;2023-08-12T08:23:12;3.00;;;2.72;;
15693;SDS011;7947;48.834;9.132;2023-08-12T08:26:15;5.88;;;2.75;;
15693;SDS011;7947;48.834;9.132;2023-08-12T08:29:18;3.00;;;2.63;;
15693;SDS011;7947;48.834;9.132;2023-08-12T08:32:22;3.20;;;2.70;;
15693;SDS011;7947;48.834;9.132;2023-08-12T08:35:25;3.10;;;2.80;;
15693;SDS011;7947;48.834;9.132;2023-08-12T08:38:28;4.57;;;2.33;;
15693;SDS011;7947;48.834;9.132;2023-08-12T08:41:31;3.38;;;2.90;;
15693;SDS011;7947;48.834;9.132;2023-08-12T08:44:40;3.53;;;2.50;;
15693;SDS011;7947;48.834;9.132;2023-08-12T08:47:45;4.38;;;2.58;;
15693;SDS011;7947;48.834;9.132;2023-08-12T08:50:50;4.82;;;2.92;;
15693;SDS011;7947;48.834;9.132;2023-08-12T08:53:54;3.95;;;3.05;;
15693;SDS011;7947;48.834;9.132;2023-08-12T08:57:04;3.38;;;2.55;;
15693;SDS011;7947;48.834;9.132;2023-08-12T09:00:27;4.88;;;3.67;;
15693;SDS011;7947;48.834;9.132;2023-08-12T09:03:32;3.08;;;2.63;;
15693;SDS011;7947;48.834;9.132;2023-08-12T09:06:36;4.22;;;3.15;;
15693;SDS011;7947;48.834;9.132;2023-08-12T09:09:42;4.20;;;3.33;;
15693;SDS011;7947;48.834;9.132;2023-08-12T09:12:49;3.90;;;3.30;;
15693;SDS011;7947;48.834;9.132;2023-08-12T09:15:54;4.55;;;2.90;;
15693;SDS011;7947;48.834;9.132;2023-08-12T09:18:58;4.05;;;3.35;;
15693;SDS011;7947;48.834;9.132;2023-08-12T09:22:02;4.13;;;3.08;;
15693;SDS011;7947;48.834;9.132;2023-08-12T09:25:06;4.50;;;2.85;;
15693;SDS011;7947;48.834;9.132;2023-08-12T09:28:09;2.65;;;2.45;;
15693;SDS011;7947;48.834;9.132;2023-08-12T09:31:21;3.67;;;2.88;;
15693;SDS011;7947;48.834;9.132;2023-08-12T09:34:28;3.40;;;2.88;;
15693;SDS011;7947;48.834;9.132;2023-08-12T09:37:30;3.50;;;2.65;;
15693;SDS011;7947;48.834;9.132;2023-08-12T09:40:35;2.90;;;2.60;;
15693;SDS011;7947;48.834;9.132;2023-08-12T09:43:40;2.95;;;2.50;;
15693;SDS011;7947;48.834;9.132;2023-08-12T09:46:44;4.97;;;3.00;;
15693;SDS011;7947;48.834;9.132;2023-08-12T09:49:51;3.10;;;2.80;;
15693;SDS011;7947;48.834;9.132;2023-08-12T09:52:54;3.30;;;2.90;;
15693;SDS011;7947;48.834;9.132;2023-08-12T09:55:57;3.58;;;2.50;;
15693;SDS011;7947;48.834;9.132;2023-08-12T09:59:06;3.28;;;2.88;;
15693;SDS011;7947;48.834;9.132;2023-08-12T10:02:09;3.17;;;2.63;;
15693;SDS011;7947;48.834;9.132;2023-08-12T10:05:23;35.90;;;5.88;;
15693;SDS011;7947;48.834;9.132;2023-08-12T10:08:29;4.20;;;3.20;;
15693;SDS011;7947;48.834;9.132;2023-08-12T10:11:32;3.35;;;2.80;;
15693;SDS011;7947;48.834;9.132;2023-08-12T10:14:35;2.83;;;2.53;;
15693;SDS011;7947;48.834;9.132;2023-08-12T10:17:38;3.88;;;2.60;;
15693;SDS011;7947;48.834;9.132;2023-08-12T10:20:45;2.92;;;2.30;;
15693;SDS011;7947;48.834;9.132;2023-08-12T10:23:50;2.13;;;1.80;;
15693;SDS011;7947;48.834;9.132;2023-08-12T10:26:53;2.60;;;1.92;;
15693;SDS011;7947;48.834;9.132;2023-08-12T10:29:56;2.97;;;2.28;;
15693;SDS011;7947;48.834;9.132;2023-08-12T10:32:59;2.58;;;1.90;;
15693;SDS011;7947;48.834;9.132;2023-08-12T10:36:04;3.83;;;1.80;;
15693;SDS011;7947;48.834;9.132;2023-08-12T10:39:08;2.42;;;2.20;;
15693;SDS011;7947;48.834;9.132;2023-08-12T10:42:12;3.17;;;2.28;;
15693;SDS011;7947;48.834;9.132;2023-08-12T10:45:15;2.58;;;1.88;;
15693;SDS011;7947;48.834;9.132;2023-08-12T10:48:21;2.63;;;2.10;;
15693;SDS011;7947;48.834;9.132;2023-08-12T10:51:43;3.15;;;1.73;;
15693;SDS011;7947;48.834;9.132;2023-08-12T10:54:48;2.10;;;1.90;;
15693;SDS011;7947;48.834;9.132;2023-08-12T10:57:51;1.80;;;1.60;;
15693;SDS011;7947;48.834;9.132;2023-08-12T11:00:57;2.33;;;1.50;;
15693;SDS011;7947;48.834;9.132;2023-08-12T11:04:00;2.15;;;1.95;;
15693;SDS011;7947;48.834;9.132;2023-08-12T11:07:15;3.45;;;2.08;;
15693;SDS011;7947;48.834;9.132;2023-08-12T11:10:19;3.17;;;2.03;;
15693;SDS011;7947;48.834;9.132;2023-08-12T11:13:28;2.28;;;1.90;;
15693;SDS011;7947;48.834;9.132;2023-08-12T11:16:34;3.22;;;2.33;;
15693;SDS011;7947;48.834;9.132;2023-08-12T11:19:37;3.38;;;1.70;;
15693;SDS011;7947;48.834;9.132;2023-08-12T11:22:42;2.42;;;1.67;;
15693;SDS011;7947;48.834;9.132;2023-08-12T11:25:46;2.33;;;1.80;;
15693;SDS011;7947;48.834;9.132;2023-08-12T11:28:51;3.08;;;1.88;;
15693;SDS011;7947;48.834;9.132;2023-08-12T11:31:55;3.72;;;1.85;;
15693;SDS011;7947;48.834;9.132;2023-08-12T11:34:58;2.45;;;1.80;;
15693;SDS011;7947;48.834;9.132;2023-08-12T11:38:03;2.72;;;1.92;;
15693;SDS011;7947;48.834;9.132;2023-08-12T11:41:07;2.17;;;1.92;;
15693;SDS011;7947;48.834;9.132;2023-08-12T11:44:11;3.85;;;2.00;;
15693;SDS011;7947;48.834;9.132;2023-08-12T11:47:14;2.53;;;1.92;;
15693;SDS011;7947;48.834;9.132;2023-08-12T11:50:17;2.15;;;1.90;;
15693;SDS011;7947;48.834;9.132;2023-08-12T11:53:22;4.10;;;2.40;;
15693;SDS011;7947;48.834;9.132;2023-08-12T11:56:25;2.97;;;2.67;;
15693;SDS011;7947;48.834;9.132;2023-08-12T11:59:30;4.20;;;2.80;;
15693;SDS011;7947;48.834;9.132;2023-08-12T12:02:34;2.35;;;1.80;;
15693;SDS011;7947;48.834;9.132;2023-08-12T12:05:38;2.17;;;1.65;;
15693;SDS011;7947;48.834;9.132;2023-08-12T12:08:43;3.08;;;1.75;;
15693;SDS011;7947;48.834;9.132;2023-08-12T12:11:47;4.32;;;1.83;;
15693;SDS011;7947;48.834;9.132;2023-08-12T12:14:55;1.90;;;1.30;;
15693;SDS011;7947;48.834;9.132;2023-08-12T12:17:58;1.90;;;1.70;;
15693;SDS011;7947;48.834;9.132;2023-08-12T12:21:01;2.58;;;1.80;;
15693;SDS011;7947;48.834;9.132;2023-08-12T12:24:06;4.07;;;1.80;;
15693;SDS011;7947;48.834;9.132;2023-08-12T12:27:09;3.08;;;1.73;;
15693;SDS011;7947;48.834;9.132;2023-08-12T12:34:34;1.88;;;1.40;;
15693;SDS011;7947;48.834;9.132;2023-08-12T12:37:37;3.72;;;1.80;;
15693;SDS011;7947;48.834;9.132;2023-08-12T12:40:42;2.85;;;1.88;;
15693;SDS011;7947;48.834;9.132;2023-08-12T12:43:45;2.63;;;1.92;;
15693;SDS011;7947;48.834;9.132;2023-08-12T12:46:48;5.82;;;2.42;;
15693;SDS011;7947;48.834;9.132;2023-08-12T12:49:50;3.00;;;2.30;;
15693;SDS011;7947;48.834;9.132;2023-08-12T12:52:53;2.83;;;1.85;;
15693;SDS011;7947;48.834;9.132;2023-08-12T12:55:58;4.88;;;2.22;;
15693;SDS011;7947;48.834;9.132;2023-08-12T12:59:05;3.05;;;2.10;;
15693;SDS011;7947;48.834;9.132;2023-08-12T13:02:08;3.55;;;2.30;;
15693;SDS011;7947;48.834;9.132;2023-08-12T13:05:11;2.67;;;2.13;;
15693;SDS011;7947;48.834;9.132;2023-08-12T13:08:14;5.28;;;3.10;;
15693;SDS011;7947;48.834;9.132;2023-08-12T13:11:19;4.38;;;2.67;;
15693;SDS011;7947;48.834;9.132;2023-08-12T13:14:21;3.30;;;2.65;;
15693;SDS011;7947;48.834;9.132;2023-08-12T13:17:25;5.60;;;2.90;;
15693;SDS011;7947;48.834;9.132;2023-08-12T13:20:28;4.55;;;2.72;;
15693;SDS011;7947;48.834;9.132;2023-08-12T13:23:31;3.50;;;2.25;;
15693;SDS011;7947;48.834;9.132;2023-08-12T13:26:35;2.90;;;2.20;;
15693;SDS011;7947;48.834;9.132;2023-08-12T13:29:38;4.13;;;2.45;;
15693;SDS011;7947;48.834;9.132;2023-08-12T13:32:41;4.93;;;3.08;;
15693;SDS011;7947;48.834;9.132;2023-08-12T13:35:44;3.95;;;2.65;;
15693;SDS011;7947;48.834;9.132;2023-08-12T13:38:47;4.13;;;3.10;;
15693;SDS011;7947;48.834;9.132;2023-08-12T13:41:51;3.33;;;2.67;;
15693;SDS011;7947;48.834;9.132;2023-08-12T13:44:55;5.18;;;3.45;;
15693;SDS011;7947;48.834;9.132;2023-08-12T13:48:01;6.60;;;3.25;;
15693;SDS011;7947;48.834;9.132;2023-08-12T13:51:04;4.53;;;3.33;;
15693;SDS011;7947;48.834;9.132;2023-08-12T13:54:07;4.35;;;3.25;;
15693;SDS011;7947;48.834;9.132;2023-08-12T13:57:19;5.85;;;3.30;;
15693;SDS011;7947;48.834;9.132;2023-08-12T14:00:25;5.18;;;3.20;;
15693;SDS011;7947;48.834;9.132;2023-08-12T14:03:31;3.40;;;2.88;;
15693;SDS011;7947;48.834;9.132;2023-08-12T14:06:36;5.00;;;3.22;;
15693;SDS011;7947;48.834;9.132;2023-08-12T14:09:39;3.15;;;2.85;;
15693;SDS011;7947;48.834;9.132;2023-08-12T14:12:47;5.57;;;3.47;;
15693;SDS011;7947;48.834;9.132;2023-08-12T14:15:54;4.13;;;3.00;;
15693;SDS011;7947;48.834;9.132;2023-08-12T14:18:59;4.25;;;3.45;;
15693;SDS011;7947;48.834;9.132;2023-08-12T14:22:03;3.13;;;2.83;;
15693;SDS011;7947;48.834;9.132;2023-08-12T14:25:08;3.58;;;2.80;;
15693;SDS011;7947;48.834;9.132;2023-08-12T14:28:15;3.85;;;3.00;;
15693;SDS011;7947;48.834;9.132;2023-08-12T14:31:21;3.28;;;2.83;;
15693;SDS011;7947;48.834;9.132;2023-08-12T14:34:27;5.40;;;3.30;;
15693;SDS011;7947;48.834;9.132;2023-08-12T14:37:32;5.45;;;3.35;;
15693;SDS011;7947;48.834;9.132;2023-08-12T14:40:38;4.63;;;3.10;;
15693;SDS011;7947;48.834;9.132;2023-08-12T14:43:45;3.75;;;3.15;;
15693;SDS011;7947;48.834;9.132;2023-08-12T14:46:49;3.72;;;2.95;;
15693;SDS011;7947;48.834;9.132;2023-08-12T14:49:54;4.80;;;2.78;;
15693;SDS011;7947;48.834;9.132;2023-08-12T14:52:59;3.35;;;2.92;;
15693;SDS011;7947;48.834;9.132;2023-08-12T14:56:02;3.15;;;2.55;;
15693;SDS011;7947;48.834;9.132;2023-08-12T14:59:11;3.35;;;2.63;;
15693;SDS011;7947;48.834;9.132;2023-08-12T15:02:17;5.45;;;3.25;;
15693;SDS011;7947;48.834;9.132;2023-08-12T15:05:26;3.25;;;2.55;;
15693;SDS011;7947;48.834;9.132;2023-08-12T15:08:31;5.50;;;2.70;;
15693;SDS011;7947;48.834;9.132;2023-08-12T15:11:36;4.03;;;2.47;;
15693;SDS011;7947;48.834;9.132;2023-08-12T15:14:41;2.55;;;2.13;;
15693;SDS011;7947;48.834;9.132;2023-08-12T15:17:46;3.28;;;2.58;;
15693;SDS011;7947;48.834;9.132;2023-08-12T15:20:50;3.67;;;2.65;;
15693;SDS011;7947;48.834;9.132;2023-08-12T15:23:55;4.30;;;2.83;;
15693;SDS011;7947;48.834;9.132;2023-08-12T15:27:01;2.97;;;2.50;;
15693;SDS011;7947;48.834;9.132;2023-08-12T15:30:07;3.05;;;2.67;;
15693;SDS011;7947;48.834;9.132;2023-08-12T15:33:11;3.17;;;2.78;;
15693;SDS011;7947;48.834;9.132;2023-08-12T15:36:15;3.75;;;3.03;;
15693;SDS011;7947;48.834;9.132;2023-08-12T15:39:20;3.50;;;2.58;;
15693;SDS011;7947;48.834;9.132;2023-08-12T15:42:26;3.15;;;2.83;;
15693;SDS011;7947;48.834;9.132;2023-08-12T15:45:33;5.15;;;2.97;;
15693;SDS011;7947;48.834;9.132;2023-08-12T15:48:39;2.72;;;2.40;;
15693;SDS011;7947;48.834;9.132;2023-08-12T15:51:44;4.82;;;2.63;;
15693;SDS011;7947;48.834;9.132;2023-08-12T15:54:48;3.08;;;2.60;;
15693;SDS011;7947;48.834;9.132;2023-08-12T15:57:50;5.05;;;2.60;;
15693;SDS011;7947;48.834;9.132;2023-08-12T16:00:55;3.47;;;2.83;;
15693;SDS011;7947;48.834;9.132;2023-08-12T16:03:57;3.75;;;2.67;;
15693;SDS011;7947;48.834;9.132;2023-08-12T16:07:01;5.18;;;3.40;;
15693;SDS011;7947;48.834;9.132;2023-08-12T16:10:04;4.78;;;3.35;;
15693;SDS011;7947;48.834;9.132;2023-08-12T16:13:07;4.45;;;3.15;;
15693;SDS011;7947;48.834;9.132;2023-08-12T16:16:11;3.70;;;3.35;;
15693;SDS011;7947;48.834;9.132;2023-08-12T16:19:14;4.07;;;3.28;;
15693;SDS011;7947;48.834;9.132;2023-08-12T16:22:17;4.78;;;3.50;;
15693;SDS011;7947;48.834;9.132;2023-08-12T16:25:20;2.80;;;2.50;;
15693;SDS011;7947;48.834;9.132;2023-08-12T16:28:23;3.90;;;2.70;;
15693;SDS011;7947;48.834;9.132;2023-08-12T16:31:28;5.55;;;3.13;;
15693;SDS011;7947;48.834;9.132;2023-08-12T16:34:32;3.63;;;3.13;;
15693;SDS011;7947;48.834;9.132;2023-08-12T16:37:35;4.35;;;2.80;;
15693;SDS011;7947;48.834;9.132;2023-08-12T16:40:38;5.05;;;3.20;;
15693;SDS011;7947;48.834;9.132;2023-08-12T16:43:40;3.50;;;2.92;;
15693;SDS011;7947;48.834;9.132;2023-08-12T16:46:45;4.43;;;2.72;;
15693;SDS011;7947;48.834;9.132;2023-08-12T16:49:47;4.18;;;2.95;;
15693;SDS011;7947;48.834;9.132;2023-08-12T16:52:50;2.60;;;2.38;;
15693;SDS011;7947;48.834;9.132;2023-08-12T16:55:53;2.83;;;1.95;;
15693;SDS011;7947;48.834;9.132;2023-08-12T16:58:56;2.00;;;1.80;;
15693;SDS011;7947;48.834;9.132;2023-08-12T17:02:00;3.35;;;2.35;;
15693;SDS011;7947;48.834;9.132;2023-08-12T17:05:03;2.70;;;2.03;;
15693;SDS011;7947;48.834;9.132;2023-08-12T17:08:08;3.33;;;2.25;;
15693;SDS011;7947;48.834;9.132;2023-08-12T17:11:11;2.10;;;1.90;;
15693;SDS011;7947;48.834;9.132;2023-08-12T17:14:14;2.47;;;1.83;;
15693;SDS011;7947;48.834;9.132;2023-08-12T17:17:18;2.30;;;2.10;;
15693;SDS011;7947;48.834;9.132;2023-08-12T17:20:21;2.78;;;1.98;;
15693;SDS011;7947;48.834;9.132;2023-08-12T17:23:24;3.22;;;1.90;;
15693;SDS011;7947;48.834;9.132;2023-08-12T17:26:26;2.83;;;2.15;;
15693;SDS011;7947;48.834;9.132;2023-08-12T17:29:29;2.95;;;2.15;;
15693;SDS011;7947;48.834;9.132;2023-08-12T17:32:33;2.40;;;2.17;;
15693;SDS011;7947;48.834;9.132;2023-08-12T17:35:36;2.50;;;2.25;;
15693;SDS011;7947;48.834;9.132;2023-08-12T17:38:39;3.65;;;2.30;;
15693;SDS011;7947;48.834;9.132;2023-08-12T17:41:42;2.80;;;2.35;;
15693;SDS011;7947;48.834;9.132;2023-08-12T17:44:44;3.90;;;1.92;;
15693;SDS011;7947;48.834;9.132;2023-08-12T17:47:54;3.42;;;1.92;;
15693;SDS011;7947;48.834;9.132;2023-08-12T17:50:58;2.58;;;1.63;;
15693;SDS011;7947;48.834;9.132;2023-08-12T17:54:01;2.03;;;1.73;;
15693;SDS011;7947;48.834;9.132;2023-08-12T17:57:04;3.42;;;1.70;;
15693;SDS011;7947;48.834;9.132;2023-08-12T18:00:07;2.72;;;2.38;;
15693;SDS011;7947;48.834;9.132;2023-08-12T18:03:12;2.75;;;2.10;;
15693;SDS011;7947;48.834;9.132;2023-08-12T18:06:15;2.95;;;1.88;;
15693;SDS011;7947;48.834;9.132;2023-08-12T18:09:17;2.85;;;1.60;;
15693;SDS011;7947;48.834;9.132;2023-08-12T18:12:21;1.63;;;1.52;;
15693;SDS011;7947;48.834;9.132;2023-08-12T18:15:23;2.28;;;1.85;;
15693;SDS011;7947;48.834;9.132;2023-08-12T18:18:28;1.85;;;1.65;;
15693;SDS011;7947;48.834;9.132;2023-08-12T18:21:31;2.72;;;2.00;;
15693;SDS011;7947;48.834;9.132;2023-08-12T18:24:34;2.85;;;1.42;;
15693;SDS011;7947;48.834;9.132;2023-08-12T18:27:36;3.10;;;1.60;;
15693;SDS011;7947;48.834;9.132;2023-08-12T18:30:39;2.35;;;1.42;;
15693;SDS011;7947;48.834;9.132;2023-08-12T18:33:43;1.52;;;1.42;;
15693;SDS011;7947;48.834;9.132;2023-08-12T18:36:46;1.77;;;1.40;;
15693;SDS011;7947;48.834;9.132;2023-08-12T18:39:49;2.42;;;1.63;;
15693;SDS011;7947;48.834;9.132;2023-08-12T18:42:51;2.53;;;1.85;;
15693;SDS011;7947;48.834;9.132;2023-08-12T18:45:54;2.83;;;1.80;;
15693;SDS011;7947;48.834;9.132;2023-08-12T18:48:58;2.20;;;1.45;;